Palmer, AK (99645)

1:01 AM AKDT on September 17, 2014 (GMT -0800)
Gold-Key Estates | Change Station
CLOSE
Current Station
Personal Weather Station
Location: Palmer, AK
Elevation: 203 ft
Nearby Weather Stations

Elev 203 ft 61.62 °N, 149.10 °W | Updated 1 minute ago

Overcast
Overcast
48.7 °F
Feels Like 49 °F
N
2.7
Wind Variable Wind from WSW

Today
High -- | Low -- °F
--% Chance of Precip.
Yesterday
High -- | Low -- °F
Precip. -- in
7:28 AM 8:11 PM
Last Quarter, 38% visible
Pressure 29.62 in
Visibility 10.0 miles
Clouds Overcast 8500 ft
Windchill 49 °F
Dew Point 41 °F
Humidity 75%
Rainfall 0.00 in
Snow Depth Not available.
UV 0 out of 12
Pollen Not available.
Air Quality Not available.
Flu Activity Not available.
METAR PAAQ 170853Z AUTO 06007KT 10SM OVC085 10/04 A2962 RMK AO2 SLP031 T01000039 401330078 58010 TSNO

More Conditions Fewer Conditions

Pressure 29.62 in
Visibility 10.0 miles
Clouds Overcast 8500 ft
Windchill 49 °F
Dew Point 41 °F
Humidity 75%
Rainfall 0.00 in
Snow Depth Not available.
UV 0 out of 12
Pollen Not available.
Air Quality Not available.
Flu Activity Not available.
METAR PAAQ 170853Z AUTO 06007KT 10SM OVC085 10/04 A2962 RMK AO2 SLP031 T01000039 401330078 58010 TSNO

More Conditions Fewer Conditions

10-Day Weather Forecast

Almanac

Astronomy

Sep. 17, 2014 Rise Set
Actual Time 7:28 AM AKDT 8:11 PM AKDT
Civil Twilight 6:43 AM AKDT 8:56 PM AKDT
Nautical Twilight 5:49 AM AKDT 9:50 PM AKDT
Astronomical Twilight 4:46 AM AKDT 10:51 PM AKDT
Moon 12:20 AM AKDT 5:39 PM AKDT
Length of Visible Light 14h 12m
Length of Day
12h 43m
Tomorrow will be 5m 46s shorter.
Last Quarter, 38% of the Moon is Illuminated
Today
Last Quarter
Sep 24
New
Oct 1
First Quarter
Oct 8
Full
Oct 15
Last Quarter

Today's Extremes

State Highs State Lows

Community

WunderPhotos

Upload Photos

1,753,991 photos uploaded!

Nearby

Snow Depth

Station Depth Elevation
Granite Creek 0 in 1240 ft
Atigun Pass 3 in 4800 ft
Mcneil Canyon 1 in 1320 ft
Long Lake 0 in 820 ft
Indian Pass 2 in 2300 ft

Earthquake Activity

City Distance Mag. Time & Date
No recent earthquake activity has been reported nearby.
Minimum magnitude displayed is 2.5.

Coastal Water Temperatures

Place Temperature
No Stations Reporting

Nearby Weather Stations